Pagrindinis puslapis
METAR-TAF:

METAR-TAF

Oro uostai :

Trondheimas, Norvegija

platuma: 63-28N, ilguma: 010-56E, Aukštis: 1 m

Dabartinis oras

Ataskaita buvo paskelbta 36 minutes, ne 11:20 UTC
Vėjas 9 kt iš Pietų/Pietryčių
Temperatūra 19°C
Drėgmė 49%
Slėgis 1014 hPa
Matomumas 10 km arba daugiau
nėra debesų žemiau 1500 m ir nėra kamuolinių lietaus debesų

METAR: ENVA 221120Z 16009KT CAVOK 19/08 Q1014 NOSIG RMK WIND 670FT 17017KT

Laikas: 13:56 (11:56 UTC)

Prognozė

Prognozė galioja nuo 22 metu 06 UTC su 23 metu 06 UTC
Vėjas 7 kt iš Rytų/Pietryčių
Matomumas 10 km arba daugiau
Mažai debesys ne aukštis 4000 ft
Išsisklaidę debesys ne aukštis 8000 ft
Tikimybė 30% :
Laikinai
nuo 22 metu 12 UTC su 22 metu 17 UTC
Vėjas 15 kt iš Pietų su gūsio iki 25 kt
Tikimybė 30% :
Laikinai
nuo 23 metu 00 UTC su 23 metu 06 UTC
Su prošvaistėmis ne aukštis 1400 ft
Išsisklaidę debesys ne aukštis 2500 ft, Liūtiniai kamuoliniai debesys.
lietus

TAF: ENVA 2206/2306 11007KT 9999 FEW040 SCT080 PROB30 TEMPO 2212/2217 17015G25KT PROB30 TEMPO 2300/2306 SHRA BKN014 SCT025CB

Orai ataskaitas ir orų prognozės (METAR, TAF).

turimą stotys yra geltonos ir raudonos taškus žemėlapyje.

Perkelti pele per norėdami pamatyti stoties vardą.

Tada spustelėkite, norėdami matyti oro stebėjimo ir prognozės.

Norėdami pakeisti žemėlapį: spustelėkite ant žalios mygtukų su juodo kryžiaus žemyn,; žalią mygtuką su brūkšneliu, jei norite nutolinti; arba žalių rodyklių gretimoms žemėlapius.


METAR-TAF: